Etusivu
METAR-TAF:

METAR-TAF

Lentoasemat :

Tindouf, Algeria

Leveyspiiri: 27-40N, Pituuspiiri: 008-08W, korkeus merenpinnasta: 431 m

Tämänhetkinen sää

Tämä raportti tehtiin 1 tunti ja 2 minuuttia sitten, kello 08.00 UTC
Tuuli 14 kn lännestä/luoteesta
Lämpötila 23°C
Kosteus 44%
Ilmanpaine 1015 hPa
Näkyvyys 10 km tai enemmän
ei pilviä alle 1500 m:ssä eikä cumulonimbus-pilviä

METAR: DAOF 140800Z 30014KT CAVOK 23/10 Q1015

Aika: 10:02 (09:02 UTC)

Sääennuste

Tämä raportti tehtiin 1 tunti ja 2 minuuttia sitten, kello 08.00 UTC
Ennuste voimassa 14. päivästä klo 09 UTC - 14. päivään klo 18 UTC
Tuuli 15 kn lännestä/luoteesta
Näkyvyys 10 km tai enemmän
ei pilviä alle 1500 m:ssä eikä cumulonimbus-pilviä

TAF: DAOF 140800Z 1409/1418 30015KT CAVOK

Säähavainnot ja -ennusteet yli 4000 lentoasemalta (METAR- ja TAF-raportit).

Käytössä olevat sääasemat on merkitty karttaan keltaisilla ja punaisilla pisteillä.

Aseta hiiri pisteen päälle nähdäksesi sääaseman nimen.

Klikkaa sitten nähdäksesi säähavainnot ja -ennusteet.

Kartan vaihtaminen: klikkaa mustalla rastilla varustettuja vihreitä pisteitä, niin voit zoomata sisään; viivalla varustettua vihreää pistettä, niin voit zoomata ulos tai vihreitä nuolia, niin pääset viereisille kartoille.


METAR-TAF: